sensor_id;sensor_type;location;lat;lon;timestamp;pressure;altitude;pressure_sealevel;temperature;humidity
9474;BME280;8865;47.636;7.692;2023-04-15T00:01:27;97290.19;;;7.58;100.00
9474;BME280;8865;47.636;7.692;2023-04-15T00:03:54;97292.50;;;7.61;100.00
9474;BME280;8865;47.636;7.692;2023-04-15T00:06:21;97287.28;;;7.61;100.00
9474;BME280;8865;47.636;7.692;2023-04-15T00:08:48;97294.44;;;7.59;100.00
9474;BME280;8865;47.636;7.692;2023-04-15T00:11:16;97284.28;;;7.56;100.00
9474;BME280;8865;47.636;7.692;2023-04-15T00:13:43;97287.84;;;7.55;100.00
9474;BME280;8865;47.636;7.692;2023-04-15T00:16:09;97287.56;;;7.58;100.00
9474;BME280;8865;47.636;7.692;2023-04-15T00:18:36;97291.97;;;7.57;100.00
9474;BME280;8865;47.636;7.692;2023-04-15T00:21:03;97291.97;;;7.57;100.00
9474;BME280;8865;47.636;7.692;2023-04-15T00:23:29;97288.38;;;7.58;100.00
9474;BME280;8865;47.636;7.692;2023-04-15T00:25:56;97291.00;;;7.58;100.00
9474;BME280;8865;47.636;7.692;2023-04-15T00:28:22;97295.66;;;7.55;100.00
9474;BME280;8865;47.636;7.692;2023-04-15T00:30:48;97297.47;;;7.54;100.00
9474;BME280;8865;47.636;7.692;2023-04-15T00:33:14;97288.66;;;7.55;100.00
9474;BME280;8865;47.636;7.692;2023-04-15T00:35:41;97289.78;;;7.53;100.00
9474;BME280;8865;47.636;7.692;2023-04-15T00:38:07;97293.19;;;7.53;100.00
9474;BME280;8865;47.636;7.692;2023-04-15T00:40:33;97286.91;;;7.56;100.00
9474;BME280;8865;47.636;7.692;2023-04-15T00:43:00;97289.50;;;7.56;100.00
9474;BME280;8865;47.636;7.692;2023-04-15T00:45:27;97284.28;;;7.56;100.00
9474;BME280;8865;47.636;7.692;2023-04-15T00:47:53;97292.53;;;7.51;100.00
9474;BME280;8865;47.636;7.692;2023-04-15T00:50:20;97284.44;;;7.54;100.00
9474;BME280;8865;47.636;7.692;2023-04-15T00:52:46;97282.38;;;7.58;100.00
9474;BME280;8865;47.636;7.692;2023-04-15T00:55:12;97281.41;;;7.59;100.00
9474;BME280;8865;47.636;7.692;2023-04-15T00:57:39;97279.75;;;7.58;100.00
9474;BME280;8865;47.636;7.692;2023-04-15T01:00:06;97278.66;;;7.50;100.00
9474;BME280;8865;47.636;7.692;2023-04-15T01:02:36;97276.19;;;7.49;100.00
9474;BME280;8865;47.636;7.692;2023-04-15T01:05:03;97271.25;;;7.46;100.00
9474;BME280;8865;47.636;7.692;2023-04-15T01:07:30;97272.75;;;7.48;100.00
9474;BME280;8865;47.636;7.692;2023-04-15T01:09:56;97269.22;;;7.49;100.00
9474;BME280;8865;47.636;7.692;2023-04-15T01:12:25;97271.53;;;7.53;100.00
9474;BME280;8865;47.636;7.692;2023-04-15T01:14:52;97273.16;;;7.54;100.00
9474;BME280;8865;47.636;7.692;2023-04-15T01:17:19;97269.06;;;7.51;100.00
9474;BME280;8865;47.636;7.692;2023-04-15T01:19:45;97276.63;;;7.54;100.00
9474;BME280;8865;47.636;7.692;2023-04-15T01:22:11;97275.78;;;7.54;100.00
9474;BME280;8865;47.636;7.692;2023-04-15T01:24:37;97275.78;;;7.54;100.00
9474;BME280;8865;47.636;7.692;2023-04-15T01:27:04;97274.16;;;7.53;100.00
9474;BME280;8865;47.636;7.692;2023-04-15T01:29:36;97271.09;;;7.47;100.00
9474;BME280;8865;47.636;7.692;2023-04-15T01:32:03;97260.69;;;7.47;100.00
9474;BME280;8865;47.636;7.692;2023-04-15T01:34:29;97273.56;;;7.49;100.00
9474;BME280;8865;47.636;7.692;2023-04-15T01:36:55;97271.09;;;7.47;100.00
9474;BME280;8865;47.636;7.692;2023-04-15T01:39:21;97273.44;;;7.50;100.00
9474;BME280;8865;47.636;7.692;2023-04-15T01:41:47;97274.56;;;7.48;100.00
9474;BME280;8865;47.636;7.692;2023-04-15T01:44:13;97269.75;;;7.43;100.00
9474;BME280;8865;47.636;7.692;2023-04-15T01:46:39;97271.38;;;7.44;100.00
9474;BME280;8865;47.636;7.692;2023-04-15T01:49:05;97272.75;;;7.48;100.00
9474;BME280;8865;47.636;7.692;2023-04-15T01:51:32;97272.50;;;7.51;100.00
9474;BME280;8865;47.636;7.692;2023-04-15T01:53:58;97280.03;;;7.55;100.00
9474;BME280;8865;47.636;7.692;2023-04-15T01:56:24;97268.53;;;7.57;100.00
9474;BME280;8865;47.636;7.692;2023-04-15T01:58:51;97273.72;;;7.57;100.00
9474;BME280;8865;47.636;7.692;2023-04-15T02:01:17;97271.13;;;7.57;100.00
9474;BME280;8865;47.636;7.692;2023-04-15T02:03:47;97268.66;;;7.56;100.00
9474;BME280;8865;47.636;7.692;2023-04-15T02:06:12;97264.41;;;7.55;100.00
9474;BME280;8865;47.636;7.692;2023-04-15T02:08:39;97266.19;;;7.54;100.00
9474;BME280;8865;47.636;7.692;2023-04-15T02:11:05;97268.78;;;7.54;100.00
9474;BME280;8865;47.636;7.692;2023-04-15T02:13:31;97274.00;;;7.54;100.00
9474;BME280;8865;47.636;7.692;2023-04-15T02:15:58;97270.56;;;7.54;100.00
9474;BME280;8865;47.636;7.692;2023-04-15T02:18:24;97271.69;;;7.51;100.00
9474;BME280;8865;47.636;7.692;2023-04-15T02:20:51;97269.34;;;7.48;100.00
9474;BME280;8865;47.636;7.692;2023-04-15T02:23:17;97265.22;;;7.45;100.00
9474;BME280;8865;47.636;7.692;2023-04-15T02:25:43;97269.75;;;7.43;100.00
9474;BME280;8865;47.636;7.692;2023-04-15T02:28:09;97273.59;;;7.39;100.00
9474;BME280;8865;47.636;7.692;2023-04-15T02:30:35;97266.59;;;7.40;100.00
9474;BME280;8865;47.636;7.692;2023-04-15T02:33:02;97266.19;;;7.35;100.00
9474;BME280;8865;47.636;7.692;2023-04-15T02:35:28;97274.81;;;7.35;100.00
9474;BME280;8865;47.636;7.692;2023-04-15T02:37:54;97264.81;;;7.40;100.00
9474;BME280;8865;47.636;7.692;2023-04-15T02:40:20;97261.50;;;7.38;100.00
9474;BME280;8865;47.636;7.692;2023-04-15T02:42:46;97257.00;;;7.40;100.00
9474;BME280;8865;47.636;7.692;2023-04-15T02:45:12;97251.66;;;7.42;100.00
9474;BME280;8865;47.636;7.692;2023-04-15T02:47:38;97258.34;;;7.44;100.00
9474;BME280;8865;47.636;7.692;2023-04-15T02:50:11;97249.88;;;7.42;100.00
9474;BME280;8865;47.636;7.692;2023-04-15T02:52:40;97255.75;;;7.44;100.00
9474;BME280;8865;47.636;7.692;2023-04-15T02:55:09;97255.06;;;7.42;100.00
9474;BME280;8865;47.636;7.692;2023-04-15T02:57:35;97256.59;;;7.45;100.00
9474;BME280;8865;47.636;7.692;2023-04-15T03:00:04;97256.31;;;7.48;100.00
9474;BME280;8865;47.636;7.692;2023-04-15T03:02:35;97253.72;;;7.48;100.00
9474;BME280;8865;47.636;7.692;2023-04-15T03:05:02;97253.56;;;7.49;100.00
9474;BME280;8865;47.636;7.692;2023-04-15T03:07:28;97246.72;;;7.48;100.00
9474;BME280;8865;47.636;7.692;2023-04-15T03:09:54;97245.91;;;7.48;100.00
9474;BME280;8865;47.636;7.692;2023-04-15T03:12:20;97244.91;;;7.49;100.00
9474;BME280;8865;47.636;7.692;2023-04-15T03:14:46;97245.91;;;7.48;100.00
9474;BME280;8865;47.636;7.692;2023-04-15T03:17:12;97251.78;;;7.50;100.00
9474;BME280;8865;47.636;7.692;2023-04-15T03:19:38;97249.31;;;7.48;100.00
9474;BME280;8865;47.636;7.692;2023-04-15T03:22:04;97248.63;;;7.46;100.00
9474;BME280;8865;47.636;7.692;2023-04-15T03:24:30;97249.88;;;7.42;100.00
9474;BME280;8865;47.636;7.692;2023-04-15T03:26:56;97247.41;;;7.41;100.00
9474;BME280;8865;47.636;7.692;2023-04-15T03:29:22;97251.78;;;7.40;100.00
9474;BME280;8865;47.636;7.692;2023-04-15T03:31:48;97246.31;;;7.43;100.00
9474;BME280;8865;47.636;7.692;2023-04-15T03:34:14;97246.44;;;7.42;100.00
9474;BME280;8865;47.636;7.692;2023-04-15T03:36:40;97248.06;;;7.43;100.00
9474;BME280;8865;47.636;7.692;2023-04-15T03:39:06;97250.53;;;7.44;100.00
9474;BME280;8865;47.636;7.692;2023-04-15T03:41:32;97246.44;;;7.51;100.00
9474;BME280;8865;47.636;7.692;2023-04-15T03:43:58;97242.59;;;7.56;100.00
9474;BME280;8865;47.636;7.692;2023-04-15T03:46:59;97243.13;;;7.59;100.00
9474;BME280;8865;47.636;7.692;2023-04-15T03:49:25;97241.22;;;7.51;100.00
9474;BME280;8865;47.636;7.692;2023-04-15T03:51:51;97237.81;;;7.51;100.00
9474;BME280;8865;47.636;7.692;2023-04-15T03:54:17;97243.81;;;7.51;100.00
9474;BME280;8865;47.636;7.692;2023-04-15T03:56:43;97240.41;;;7.51;100.00
9474;BME280;8865;47.636;7.692;2023-04-15T03:59:09;97240.00;;;7.56;100.00
9474;BME280;8865;47.636;7.692;2023-04-15T04:01:36;97246.16;;;7.55;100.00
9474;BME280;8865;47.636;7.692;2023-04-15T04:04:02;97247.25;;;7.52;100.00
9474;BME280;8865;47.636;7.692;2023-04-15T04:06:27;97243.97;;;7.40;100.00
9474;BME280;8865;47.636;7.692;2023-04-15T04:08:53;97244.13;;;7.39;100.00
9474;BME280;8865;47.636;7.692;2023-04-15T04:11:20;97240.13;;;7.44;100.00
9474;BME280;8865;47.636;7.692;2023-04-15T04:13:46;97242.72;;;7.44;100.00
9474;BME280;8865;47.636;7.692;2023-04-15T04:16:12;97248.38;;;7.49;100.00
9474;BME280;8865;47.636;7.692;2023-04-15T04:18:38;97251.66;;;7.51;100.00
9474;BME280;8865;47.636;7.692;2023-04-15T04:21:04;97257.53;;;7.54;100.00
9474;BME280;8865;47.636;7.692;2023-04-15T04:23:30;97258.78;;;7.49;100.00
9474;BME280;8865;47.636;7.692;2023-04-15T04:25:56;97257.66;;;7.52;100.00
9474;BME280;8865;47.636;7.692;2023-04-15T04:28:22;97257.41;;;7.45;100.00
9474;BME280;8865;47.636;7.692;2023-04-15T04:30:49;97260.56;;;7.49;100.00
9474;BME280;8865;47.636;7.692;2023-04-15T04:33:15;97265.09;;;7.47;100.00
9474;BME280;8865;47.636;7.692;2023-04-15T04:35:41;97264.94;;;7.48;100.00
9474;BME280;8865;47.636;7.692;2023-04-15T04:38:08;97266.59;;;7.49;100.00
9474;BME280;8865;47.636;7.692;2023-04-15T04:40:34;97269.06;;;7.51;100.00
9474;BME280;8865;47.636;7.692;2023-04-15T04:43:00;97275.63;;;7.55;100.00
9474;BME280;8865;47.636;7.692;2023-04-15T04:45:26;97271.13;;;7.57;100.00
9474;BME280;8865;47.636;7.692;2023-04-15T04:47:52;97288.38;;;7.58;100.00
9474;BME280;8865;47.636;7.692;2023-04-15T04:50:18;97288.53;;;7.57;100.00
9474;BME280;8865;47.636;7.692;2023-04-15T04:52:44;97290.31;;;7.56;100.00
9474;BME280;8865;47.636;7.692;2023-04-15T04:55:10;97299.09;;;7.55;100.00
9474;BME280;8865;47.636;7.692;2023-04-15T04:57:36;97297.59;;;7.53;100.00
9474;BME280;8865;47.636;7.692;2023-04-15T05:00:05;97300.19;;;7.53;100.00
9474;BME280;8865;47.636;7.692;2023-04-15T05:02:33;97304.44;;;7.54;100.00
9474;BME280;8865;47.636;7.692;2023-04-15T05:04:59;97307.03;;;7.54;100.00
9474;BME280;8865;47.636;7.692;2023-04-15T05:07:26;97307.31;;;7.50;100.00
9474;BME280;8865;47.636;7.692;2023-04-15T05:09:52;97306.34;;;7.51;100.00
9474;BME280;8865;47.636;7.692;2023-04-15T05:12:18;97308.44;;;7.48;100.00
9474;BME280;8865;47.636;7.692;2023-04-15T05:14:44;97303.50;;;7.45;100.00
9474;BME280;8865;47.636;7.692;2023-04-15T05:17:11;97299.63;;;7.39;100.00
9474;BME280;8865;47.636;7.692;2023-04-15T05:19:37;97296.22;;;7.39;100.00
9474;BME280;8865;47.636;7.692;2023-04-15T05:22:03;97301.81;;;7.34;100.00
9474;BME280;8865;47.636;7.692;2023-04-15T05:24:29;97297.28;;;7.36;100.00
9474;BME280;8865;47.636;7.692;2023-04-15T05:26:55;97296.72;;;7.32;100.00
9474;BME280;8865;47.636;7.692;2023-04-15T05:29:21;97294.66;;;7.26;100.00
9474;BME280;8865;47.636;7.692;2023-04-15T05:31:47;97304.41;;;7.24;100.00
9474;BME280;8865;47.636;7.692;2023-04-15T05:34:13;97304.28;;;7.26;100.00
9474;BME280;8865;47.636;7.692;2023-04-15T05:36:41;97301.66;;;7.36;100.00
9474;BME280;8865;47.636;7.692;2023-04-15T05:39:07;97302.66;;;7.44;100.00
9474;BME280;8865;47.636;7.692;2023-04-15T05:41:33;97306.22;;;7.43;100.00
9474;BME280;8865;47.636;7.692;2023-04-15T05:43:59;97306.38;;;7.42;100.00
9474;BME280;8865;47.636;7.692;2023-04-15T05:46:26;97313.34;;;7.41;100.00
9474;BME280;8865;47.636;7.692;2023-04-15T05:48:52;97311.03;;;7.48;100.00
9474;BME280;8865;47.636;7.692;2023-04-15T05:51:18;97311.84;;;7.48;100.00
9474;BME280;8865;47.636;7.692;2023-04-15T05:53:44;97312.38;;;7.52;100.00
9474;BME280;8865;47.636;7.692;2023-04-15T05:56:10;97305.28;;;7.54;100.00
9474;BME280;8865;47.636;7.692;2023-04-15T05:58:36;97307.75;;;7.56;100.00
9474;BME280;8865;47.636;7.692;2023-04-15T06:01:02;97307.47;;;7.59;100.00
9474;BME280;8865;47.636;7.692;2023-04-15T06:03:28;97313.75;;;7.66;100.00
9474;BME280;8865;47.636;7.692;2023-04-15T06:05:55;97307.72;;;7.75;100.00
9474;BME280;8865;47.636;7.692;2023-04-15T06:08:21;97317.88;;;7.78;100.00
9474;BME280;8865;47.636;7.692;2023-04-15T06:10:47;97316.63;;;7.82;100.00
9474;BME280;8865;47.636;7.692;2023-04-15T06:13:13;97318.31;;;7.83;100.00
9474;BME280;8865;47.636;7.692;2023-04-15T06:15:39;97318.69;;;7.89;100.00
9474;BME280;8865;47.636;7.692;2023-04-15T06:18:05;97311.41;;;7.92;100.00
9474;BME280;8865;47.636;7.692;2023-04-15T06:20:31;97310.59;;;7.92;100.00
9474;BME280;8865;47.636;7.692;2023-04-15T06:22:57;97306.47;;;7.99;100.00
9474;BME280;8865;47.636;7.692;2023-04-15T06:25:23;97312.38;;;8.01;100.00
9474;BME280;8865;47.636;7.692;2023-04-15T06:27:49;97304.53;;;8.01;100.00
9474;BME280;8865;47.636;7.692;2023-04-15T06:30:15;97307.28;;;8.09;100.00
9474;BME280;8865;47.636;7.692;2023-04-15T06:32:41;97311.94;;;8.15;100.00
9474;BME280;8865;47.636;7.692;2023-04-15T06:35:08;97306.16;;;8.21;100.00
9474;BME280;8865;47.636;7.692;2023-04-15T06:37:34;97308.03;;;8.29;100.00
9474;BME280;8865;47.636;7.692;2023-04-15T06:40:00;97314.06;;;8.39;100.00
9474;BME280;8865;47.636;7.692;2023-04-15T06:42:26;97303.09;;;8.46;100.00
9474;BME280;8865;47.636;7.692;2023-04-15T06:44:52;97307.19;;;8.58;100.00
9474;BME280;8865;47.636;7.692;2023-04-15T06:47:18;97303.28;;;8.72;100.00
9474;BME280;8865;47.636;7.692;2023-04-15T06:49:44;97302.25;;;8.83;100.00
9474;BME280;8865;47.636;7.692;2023-04-15T06:52:10;97296.56;;;8.97;100.00
9474;BME280;8865;47.636;7.692;2023-04-15T06:54:37;97298.53;;;9.13;100.00
9474;BME280;8865;47.636;7.692;2023-04-15T06:57:03;97297.66;;;9.22;100.00
9474;BME280;8865;47.636;7.692;2023-04-15T06:59:29;97299.75;;;9.37;100.00
9474;BME280;8865;47.636;7.692;2023-04-15T07:01:55;97302.22;;;9.56;100.00
9474;BME280;8865;47.636;7.692;2023-04-15T07:04:21;97296.50;;;9.71;100.00
9474;BME280;8865;47.636;7.692;2023-04-15T07:06:47;97295.50;;;9.90;100.00
9474;BME280;8865;47.636;7.692;2023-04-15T07:09:13;97295.47;;;10.08;100.00
9474;BME280;8865;47.636;7.692;2023-04-15T07:11:40;97291.78;;;10.18;100.00
9474;BME280;8865;47.636;7.692;2023-04-15T07:14:06;97289.03;;;10.28;100.00
9474;BME280;8865;47.636;7.692;2023-04-15T07:16:32;97287.53;;;10.44;100.00
9474;BME280;8865;47.636;7.692;2023-04-15T07:18:58;97281.63;;;10.42;100.00
9474;BME280;8865;47.636;7.692;2023-04-15T07:21:24;97282.47;;;10.50;100.00
9474;BME280;8865;47.636;7.692;2023-04-15T07:23:50;97288.34;;;10.44;100.00
9474;BME280;8865;47.636;7.692;2023-04-15T07:26:16;97283.81;;;10.54;100.00
9474;BME280;8865;47.636;7.692;2023-04-15T07:28:42;97277.88;;;10.79;100.00
9474;BME280;8865;47.636;7.692;2023-04-15T07:31:08;97286.53;;;11.14;100.00
9474;BME280;8865;47.636;7.692;2023-04-15T07:33:34;97285.56;;;11.23;100.00
9474;BME280;8865;47.636;7.692;2023-04-15T07:36:00;97286.69;;;11.20;100.00
9474;BME280;8865;47.636;7.692;2023-04-15T07:38:26;97288.50;;;11.36;100.00
9474;BME280;8865;47.636;7.692;2023-04-15T07:40:53;97281.00;;;11.50;100.00
9474;BME280;8865;47.636;7.692;2023-04-15T07:43:19;97285.63;;;11.72;100.00
9474;BME280;8865;47.636;7.692;2023-04-15T07:45:46;97291.03;;;11.71;100.00
9474;BME280;8865;47.636;7.692;2023-04-15T07:48:12;97291.38;;;11.84;100.00
9474;BME280;8865;47.636;7.692;2023-04-15T07:50:38;97289.41;;;12.11;100.00
9474;BME280;8865;47.636;7.692;2023-04-15T07:53:04;97286.38;;;12.47;100.00
9474;BME280;8865;47.636;7.692;2023-04-15T07:55:31;97297.38;;;12.42;100.00
9474;BME280;8865;47.636;7.692;2023-04-15T07:57:57;97300.53;;;12.29;100.00
9474;BME280;8865;47.636;7.692;2023-04-15T08:00:23;97291.03;;;12.20;100.00
9474;BME280;8865;47.636;7.692;2023-04-15T08:02:49;97290.72;;;11.99;100.00
9474;BME280;8865;47.636;7.692;2023-04-15T08:05:17;97293.91;;;11.35;100.00
9474;BME280;8865;47.636;7.692;2023-04-15T08:07:43;97300.75;;;11.19;100.00
9474;BME280;8865;47.636;7.692;2023-04-15T08:10:10;97294.38;;;11.14;100.00
9474;BME280;8865;47.636;7.692;2023-04-15T08:12:36;97295.97;;;10.98;100.00
9474;BME280;8865;47.636;7.692;2023-04-15T08:15:03;97298.22;;;10.93;100.00
9474;BME280;8865;47.636;7.692;2023-04-15T08:17:29;97297.16;;;10.69;100.00
9474;BME280;8865;47.636;7.692;2023-04-15T08:19:55;97300.41;;;10.63;100.00
9474;BME280;8865;47.636;7.692;2023-04-15T08:22:22;97306.50;;;10.72;100.00
9474;BME280;8865;47.636;7.692;2023-04-15T08:24:48;97306.34;;;10.74;100.00
9474;BME280;8865;47.636;7.692;2023-04-15T08:27:14;97307.34;;;10.81;100.00
9474;BME280;8865;47.636;7.692;2023-04-15T08:29:40;97308.91;;;11.00;100.00
9474;BME280;8865;47.636;7.692;2023-04-15T08:32:06;97305.19;;;11.11;100.00
9474;BME280;8865;47.636;7.692;2023-04-15T08:34:32;97314.00;;;11.10;100.00
9474;BME280;8865;47.636;7.692;2023-04-15T08:36:59;97306.31;;;11.16;100.00
9474;BME280;8865;47.636;7.692;2023-04-15T08:39:25;97312.88;;;11.12;100.00
9474;BME280;8865;47.636;7.692;2023-04-15T08:42:00;97320.78;;;11.29;100.00
9474;BME280;8865;47.636;7.692;2023-04-15T08:44:28;97315.19;;;11.23;100.00
9474;BME280;8865;47.636;7.692;2023-04-15T08:47:00;97324.09;;;11.39;100.00
9474;BME280;8865;47.636;7.692;2023-04-15T08:49:28;97332.47;;;11.59;100.00
9474;BME280;8865;47.636;7.692;2023-04-15T08:51:55;97328.88;;;11.68;100.00
9474;BME280;8865;47.636;7.692;2023-04-15T08:54:23;97319.56;;;11.74;100.00
9474;BME280;8865;47.636;7.692;2023-04-15T08:56:49;97318.06;;;11.71;100.00
9474;BME280;8865;47.636;7.692;2023-04-15T08:59:16;97316.44;;;11.78;100.00
9474;BME280;8865;47.636;7.692;2023-04-15T09:01:42;97315.63;;;11.86;100.00
9474;BME280;8865;47.636;7.692;2023-04-15T09:04:09;97323.19;;;11.97;100.00
9474;BME280;8865;47.636;7.692;2023-04-15T09:06:39;97318.13;;;12.12;100.00
9474;BME280;8865;47.636;7.692;2023-04-15T09:09:05;97329.28;;;12.06;100.00
9474;BME280;8865;47.636;7.692;2023-04-15T09:11:30;97330.53;;;11.77;100.00
9474;BME280;8865;47.636;7.692;2023-04-15T09:13:56;97324.81;;;11.66;100.00
9474;BME280;8865;47.636;7.692;2023-04-15T09:16:22;97335.28;;;11.66;100.00
9474;BME280;8865;47.636;7.692;2023-04-15T09:18:49;97332.16;;;11.62;100.00
9474;BME280;8865;47.636;7.692;2023-04-15T09:21:16;97338.56;;;11.59;100.00
9474;BME280;8865;47.636;7.692;2023-04-15T09:23:59;97339.53;;;11.67;100.00
9474;BME280;8865;47.636;7.692;2023-04-15T09:26:33;97339.34;;;11.43;100.00
9474;BME280;8865;47.636;7.692;2023-04-15T09:29:08;97347.03;;;11.37;100.00
9474;BME280;8865;47.636;7.692;2023-04-15T09:31:35;97345.03;;;11.31;100.00
9474;BME280;8865;47.636;7.692;2023-04-15T09:34:01;97353.19;;;11.19;100.00
9474;BME280;8865;47.636;7.692;2023-04-15T09:36:28;97348.47;;;11.31;100.00
9474;BME280;8865;47.636;7.692;2023-04-15T09:38:56;97355.59;;;11.55;100.00
9474;BME280;8865;47.636;7.692;2023-04-15T09:41:23;97360.22;;;11.78;100.00
9474;BME280;8865;47.636;7.692;2023-04-15T09:43:49;97357.94;;;11.91;100.00
9474;BME280;8865;47.636;7.692;2023-04-15T09:46:15;97360.94;;;11.96;100.00
9474;BME280;8865;47.636;7.692;2023-04-15T09:48:41;97358.78;;;12.08;100.00
9474;BME280;8865;47.636;7.692;2023-04-15T09:51:07;97374.53;;;12.25;100.00
9474;BME280;8865;47.636;7.692;2023-04-15T09:53:35;97374.38;;;12.43;100.00
9474;BME280;8865;47.636;7.692;2023-04-15T09:56:02;97374.50;;;12.58;100.00
9474;BME280;8865;47.636;7.692;2023-04-15T09:58:29;97381.72;;;12.64;100.00
9474;BME280;8865;47.636;7.692;2023-04-15T10:00:57;97381.41;;;12.59;100.00
9474;BME280;8865;47.636;7.692;2023-04-15T10:03:31;97393.88;;;12.65;100.00
9474;BME280;8865;47.636;7.692;2023-04-15T10:06:00;97382.88;;;12.78;100.00
9474;BME280;8865;47.636;7.692;2023-04-15T10:08:28;97396.16;;;12.84;100.00
9474;BME280;8865;47.636;7.692;2023-04-15T10:10:54;97396.78;;;12.86;100.00
9474;BME280;8865;47.636;7.692;2023-04-15T10:13:24;97393.84;;;12.81;100.00
9474;BME280;8865;47.636;7.692;2023-04-15T10:15:55;97404.03;;;12.84;100.00
9474;BME280;8865;47.636;7.692;2023-04-15T10:18:24;97401.25;;;12.78;100.00
9474;BME280;8865;47.636;7.692;2023-04-15T10:20:52;97405.97;;;12.91;100.00
9474;BME280;8865;47.636;7.692;2023-04-15T10:23:19;97405.50;;;12.87;100.00
9474;BME280;8865;47.636;7.692;2023-04-15T10:25:48;97411.41;;;12.89;100.00
9474;BME280;8865;47.636;7.692;2023-04-15T10:28:15;97411.06;;;12.92;100.00
9474;BME280;8865;47.636;7.692;2023-04-15T10:30:41;97414.50;;;12.93;100.00
9474;BME280;8865;47.636;7.692;2023-04-15T10:33:09;97422.22;;;12.94;100.00
9474;BME280;8865;47.636;7.692;2023-04-15T10:35:36;97427.63;;;13.09;100.00
9474;BME280;8865;47.636;7.692;2023-04-15T10:38:30;97423.63;;;13.21;100.00
9474;BME280;8865;47.636;7.692;2023-04-15T10:41:11;97428.53;;;13.41;100.00
9474;BME280;8865;47.636;7.692;2023-04-15T10:43:39;97424.94;;;13.17;100.00
9474;BME280;8865;47.636;7.692;2023-04-15T10:46:05;97427.41;;;13.27;100.00
9474;BME280;8865;47.636;7.692;2023-04-15T10:48:31;97436.94;;;13.36;100.00
9474;BME280;8865;47.636;7.692;2023-04-15T10:51:00;97432.16;;;13.40;100.00
9474;BME280;8865;47.636;7.692;2023-04-15T10:53:28;97444.00;;;13.36;100.00
9474;BME280;8865;47.636;7.692;2023-04-15T10:55:56;97443.22;;;13.11;100.00
9474;BME280;8865;47.636;7.692;2023-04-15T10:58:23;97442.91;;;12.97;100.00
9474;BME280;8865;47.636;7.692;2023-04-15T11:00:52;97443.13;;;12.88;100.00
9474;BME280;8865;47.636;7.692;2023-04-15T11:03:38;97448.03;;;12.74;100.00
9474;BME280;8865;47.636;7.692;2023-04-15T11:06:05;97447.06;;;12.75;100.00
9474;BME280;8865;47.636;7.692;2023-04-15T11:08:54;97440.03;;;12.67;100.00
9474;BME280;8865;47.636;7.692;2023-04-15T11:11:21;97443.44;;;12.68;100.00
9474;BME280;8865;47.636;7.692;2023-04-15T11:13:49;97449.53;;;12.60;100.00
9474;BME280;8865;47.636;7.692;2023-04-15T11:16:15;97449.06;;;12.57;100.00
9474;BME280;8865;47.636;7.692;2023-04-15T11:18:41;97453.00;;;12.69;100.00
9474;BME280;8865;47.636;7.692;2023-04-15T11:21:07;97453.16;;;12.51;100.00
9474;BME280;8865;47.636;7.692;2023-04-15T11:26:06;97456.59;;;12.68;100.00
9474;BME280;8865;47.636;7.692;2023-04-15T11:28:35;97455.75;;;12.92;100.00
9474;BME280;8865;47.636;7.692;2023-04-15T11:31:09;97456.88;;;13.06;100.00
9474;BME280;8865;47.636;7.692;2023-04-15T11:33:36;97467.38;;;13.06;100.00
9474;BME280;8865;47.636;7.692;2023-04-15T11:36:02;97463.28;;;13.03;100.00
9474;BME280;8865;47.636;7.692;2023-04-15T11:38:29;97475.84;;;13.33;100.00
9474;BME280;8865;47.636;7.692;2023-04-15T11:40:56;97466.88;;;13.75;100.00
9474;BME280;8865;47.636;7.692;2023-04-15T11:43:22;97465.09;;;13.67;100.00
9474;BME280;8865;47.636;7.692;2023-04-15T11:45:55;97476.88;;;13.80;100.00
9474;BME280;8865;47.636;7.692;2023-04-15T11:48:24;97463.69;;;14.11;100.00
9474;BME280;8865;47.636;7.692;2023-04-15T11:50:56;97468.09;;;14.42;100.00
9474;BME280;8865;47.636;7.692;2023-04-15T11:53:23;97476.84;;;14.66;100.00
9474;BME280;8865;47.636;7.692;2023-04-15T11:55:51;97482.13;;;14.57;100.00
9474;BME280;8865;47.636;7.692;2023-04-15T11:58:22;97483.06;;;14.88;100.00
9474;BME280;8865;47.636;7.692;2023-04-15T12:03:25;97498.78;;;15.34;98.62
9474;BME280;8865;47.636;7.692;2023-04-15T12:11:15;97504.69;;;15.51;97.31
9474;BME280;8865;47.636;7.692;2023-04-15T12:13:49;97508.88;;;15.30;94.11
9474;BME280;8865;47.636;7.692;2023-04-15T12:16:19;97509.22;;;15.12;99.26
9474;BME280;8865;47.636;7.692;2023-04-15T12:18:46;97510.31;;;15.18;96.17
9474;BME280;8865;47.636;7.692;2023-04-15T12:21:20;97515.50;;;15.26;100.00
9474;BME280;8865;47.636;7.692;2023-04-15T12:23:54;97516.34;;;15.42;100.00
9474;BME280;8865;47.636;7.692;2023-04-15T12:26:27;97524.25;;;15.27;100.00
9474;BME280;8865;47.636;7.692;2023-04-15T12:29:00;97528.16;;;15.16;100.00
9474;BME280;8865;47.636;7.692;2023-04-15T12:31:27;97534.88;;;15.18;100.00
9474;BME280;8865;47.636;7.692;2023-04-15T12:33:57;97532.34;;;15.25;100.00
9474;BME280;8865;47.636;7.692;2023-04-15T12:36:23;97540.81;;;15.21;99.60
9474;BME280;8865;47.636;7.692;2023-04-15T12:38:49;97539.78;;;15.22;99.59
9474;BME280;8865;47.636;7.692;2023-04-15T12:41:15;97539.59;;;15.23;96.73
9474;BME280;8865;47.636;7.692;2023-04-15T12:43:43;97550.41;;;15.13;94.31
9474;BME280;8865;47.636;7.692;2023-04-15T12:46:12;97554.88;;;15.13;100.00
9474;BME280;8865;47.636;7.692;2023-04-15T12:48:39;97548.94;;;15.11;100.00
9474;BME280;8865;47.636;7.692;2023-04-15T12:51:08;97563.50;;;15.07;97.79
9474;BME280;8865;47.636;7.692;2023-04-15T12:53:35;97568.06;;;15.13;95.88
9474;BME280;8865;47.636;7.692;2023-04-15T12:56:01;97570.84;;;15.34;100.00
9474;BME280;8865;47.636;7.692;2023-04-15T12:58:27;97576.59;;;15.53;100.00
9474;BME280;8865;47.636;7.692;2023-04-15T13:00:53;97576.78;;;15.66;100.00
9474;BME280;8865;47.636;7.692;2023-04-15T13:03:19;97581.16;;;15.59;100.00
9474;BME280;8865;47.636;7.692;2023-04-15T13:05:45;97585.88;;;15.49;100.00
9474;BME280;8865;47.636;7.692;2023-04-15T13:08:11;97590.31;;;15.33;99.62
9474;BME280;8865;47.636;7.692;2023-04-15T13:10:37;97591.09;;;15.19;100.00
9474;BME280;8865;47.636;7.692;2023-04-15T13:13:04;97598.50;;;15.00;100.00
9474;BME280;8865;47.636;7.692;2023-04-15T13:15:30;97598.97;;;14.81;99.06
9474;BME280;8865;47.636;7.692;2023-04-15T13:17:56;97604.63;;;14.70;100.00
9474;BME280;8865;47.636;7.692;2023-04-15T13:20:24;97610.16;;;14.52;100.00
9474;BME280;8865;47.636;7.692;2023-04-15T13:22:52;97609.59;;;14.33;100.00
9474;BME280;8865;47.636;7.692;2023-04-15T13:25:18;97619.69;;;14.21;100.00
9474;BME280;8865;47.636;7.692;2023-04-15T13:27:45;97616.13;;;14.06;100.00